Time;durP1;ratioP1;P1;durP2;ratioP2;P2;SDS_P1;SDS_P2;PMS_P1;PMS_P2;Temp;Humidity;BMP_temperature;BMP_pressure;BME280_temperature;BME280_humidity;BME280_pressure;Samples;Min_cycle;Max_cycle;Signal;HPM_P1;HPM_P2
2023/01/25 00:01:44;;;;;;;9.30;5.10;;;1.70;99.90;;;;;;5026801;28;20217;-87
2023/01/25 00:04:13;;;;;;;2.10;2.00;;;1.70;99.90;;;;;;5025782;28;20193;-88
2023/01/25 00:06:39;;;;;;;5.07;3.67;;;1.70;99.90;;;;;;5043111;28;20190;-87
2023/01/25 00:09:04;;;;;;;2.67;1.57;;;1.80;99.90;;;;;;5041721;28;20221;-87
2023/01/25 00:11:30;;;;;;;4.93;4.10;;;1.80;99.90;;;;;;5041054;28;20217;-87
2023/01/25 00:13:56;;;;;;;3.77;3.57;;;1.70;99.90;;;;;;5025504;28;20225;-87
2023/01/25 00:16:22;;;;;;;7.50;3.73;;;1.50;99.90;;;;;;5041629;28;20210;-88
2023/01/25 00:18:49;;;;;;;3.47;3.17;;;1.50;99.90;;;;;;5044131;28;20217;-88
2023/01/25 00:21:17;;;;;;;7.73;3.77;;;1.40;99.90;;;;;;5040767;28;20221;-88
2023/01/25 00:23:43;;;;;;;3.13;2.83;;;1.40;99.90;;;;;;5039672;28;20211;-88
2023/01/25 00:26:09;;;;;;;2.50;2.30;;;1.40;99.90;;;;;;5041309;28;20224;-88
2023/01/25 00:28:34;;;;;;;8.80;4.83;;;1.50;99.90;;;;;;5042811;28;20222;-88
2023/01/25 00:31:02;;;;;;;3.43;3.23;;;1.60;99.90;;;;;;5042183;28;20205;-88
2023/01/25 00:33:37;;;;;;;5.93;2.93;;;1.60;99.90;;;;;;5057856;28;20178;-87
2023/01/25 00:36:22;;;;;;;3.87;3.57;;;1.60;99.90;;;;;;5058178;28;20225;-87
2023/01/25 00:38:48;;;;;;;4.47;4.13;;;1.60;99.90;;;;;;5058095;28;20221;-88
2023/01/25 00:41:13;;;;;;;3.10;2.67;;;1.50;99.90;;;;;;5041564;28;20214;-88
2023/01/25 00:43:39;;;;;;;3.30;3.10;;;1.60;99.90;;;;;;5041056;28;20280;-88
2023/01/25 00:46:05;;;;;;;2.03;1.93;;;1.70;99.90;;;;;;5023270;28;20784;-88
2023/01/25 00:48:33;;;;;;;2.97;2.77;;;1.70;99.90;;;;;;5041030;28;20219;-89
2023/01/25 00:51:00;;;;;;;2.67;2.57;;;1.70;99.90;;;;;;5041421;28;20239;-88
2023/01/25 00:53:26;;;;;;;16.97;5.13;;;1.70;99.90;;;;;;5059644;28;20336;-88
2023/01/25 00:55:52;;;;;;;4.80;4.30;;;1.70;99.90;;;;;;5041512;28;20209;-87
2023/01/25 00:58:18;;;;;;;6.53;3.57;;;1.80;99.90;;;;;;5041275;28;20182;-87
2023/01/25 01:00:44;;;;;;;3.17;2.97;;;1.80;99.90;;;;;;5041022;28;20201;-88
2023/01/25 01:03:09;;;;;;;3.10;2.90;;;1.70;99.90;;;;;;5039864;28;20218;-88
2023/01/25 01:05:35;;;;;;;3.83;3.47;;;1.50;99.90;;;;;;5040553;28;20824;-88
2023/01/25 01:08:01;;;;;;;5.73;3.77;;;1.50;99.90;;;;;;5040128;28;20210;-88
2023/01/25 01:10:27;;;;;;;3.73;3.47;;;1.50;99.90;;;;;;5041950;28;20261;-88
2023/01/25 01:12:56;;;;;;;4.33;2.87;;;1.60;99.90;;;;;;5023903;28;20189;-88
2023/01/25 01:15:22;;;;;;;3.53;3.30;;;1.70;99.90;;;;;;5042562;28;20366;-88
2023/01/25 01:17:47;;;;;;;3.00;2.60;;;1.60;99.90;;;;;;5024783;28;20289;-88
2023/01/25 01:20:13;;;;;;;6.97;6.03;;;1.60;99.90;;;;;;5025742;28;20623;-88
2023/01/25 01:22:39;;;;;;;3.77;3.57;;;1.60;99.90;;;;;;5057181;28;20232;-88
2023/01/25 01:25:05;;;;;;;7.60;4.80;;;1.60;99.90;;;;;;5038992;28;20176;-88
2023/01/25 01:27:31;;;;;;;7.20;3.03;;;1.70;99.90;;;;;;5024563;28;20332;-88
2023/01/25 01:29:57;;;;;;;8.03;4.00;;;1.70;99.90;;;;;;5056487;28;20781;-88
2023/01/25 01:32:23;;;;;;;1.93;1.77;;;1.70;99.90;;;;;;5040116;28;20221;-87
2023/01/25 01:34:48;;;;;;;4.20;3.90;;;1.60;99.90;;;;;;5040513;28;20344;-87
2023/01/25 01:37:14;;;;;;;4.97;3.87;;;1.50;99.90;;;;;;5040855;28;20642;-87
2023/01/25 01:39:40;;;;;;;3.67;3.37;;;1.50;99.90;;;;;;5039498;28;20193;-87
2023/01/25 01:42:06;;;;;;;6.67;4.10;;;1.40;99.90;;;;;;5042039;28;20236;-87
2023/01/25 01:44:52;;;;;;;4.00;2.60;;;1.30;99.90;;;;;;5040386;28;20228;-88
2023/01/25 01:47:20;;;;;;;7.27;4.30;;;1.30;99.90;;;;;;5039492;28;20574;-88
2023/01/25 01:49:53;;;;;;;7.90;5.30;;;1.30;99.90;;;;;;5056641;28;20242;-88
2023/01/25 01:52:25;;;;;;;3.57;3.37;;;1.40;99.90;;;;;;5057596;28;20279;-87
2023/01/25 01:55:07;;;;;;;4.57;3.27;;;1.50;99.90;;;;;;5042745;28;20183;-88
2023/01/25 01:57:43;;;;;;;4.77;4.37;;;1.50;99.90;;;;;;5040957;28;20353;-88
2023/01/25 02:00:17;;;;;;;3.73;3.30;;;1.60;99.90;;;;;;5054531;28;20217;-88
2023/01/25 02:02:42;;;;;;;3.47;3.30;;;1.50;99.90;;;;;;5041274;28;20217;-87
2023/01/25 02:05:16;;;;;;;2.53;2.33;;;1.40;99.90;;;;;;5025762;28;20219;-87
2023/01/25 02:07:44;;;;;;;6.33;2.67;;;1.40;99.90;;;;;;5041587;28;20344;-87
2023/01/25 02:10:11;;;;;;;4.60;3.57;;;1.40;99.90;;;;;;5056530;28;20214;-87
2023/01/25 02:12:38;;;;;;;3.80;3.60;;;1.50;99.90;;;;;;5039950;28;20550;-87
2023/01/25 02:15:05;;;;;;;5.37;4.90;;;1.50;99.90;;;;;;5023045;28;20207;-87
2023/01/25 02:17:37;;;;;;;3.77;3.57;;;1.50;99.90;;;;;;5038382;28;20697;-88
2023/01/25 02:20:16;;;;;;;6.10;4.87;;;1.50;99.90;;;;;;5039951;28;20229;-87
2023/01/25 02:23:11;;;;;;;8.33;4.37;;;1.50;99.90;;;;;;5056735;28;20228;-87
2023/01/25 02:25:38;;;;;;;14.03;3.33;;;1.40;99.90;;;;;;5041457;28;20268;-88
2023/01/25 02:28:33;;;;;;;3.70;3.40;;;1.40;99.90;;;;;;5022463;28;20713;-87
2023/01/25 02:30:59;;;;;;;5.10;4.07;;;1.40;99.90;;;;;;5037659;28;21231;-88
2023/01/25 02:33:26;;;;;;;5.37;3.70;;;1.30;99.90;;;;;;5041452;28;20240;-88
2023/01/25 02:36:07;;;;;;;3.57;3.30;;;1.30;99.90;;;;;;5056737;28;20256;-88
2023/01/25 02:38:36;;;;;;;3.63;2.53;;;1.40;99.90;;;;;;5041559;28;20275;-88
2023/01/25 02:41:30;;;;;;;3.67;2.17;;;1.30;99.90;;;;;;5039670;28;20768;-88
2023/01/25 02:43:56;;;;;;;3.93;3.73;;;1.30;99.90;;;;;;5038241;28;20220;-88
2023/01/25 02:46:31;;;;;;;3.53;3.23;;;1.30;99.90;;;;;;5039322;28;20214;-88
2023/01/25 02:48:59;;;;;;;4.50;4.10;;;1.30;99.90;;;;;;5056373;28;20194;-88
2023/01/25 02:51:26;;;;;;;2.30;2.20;;;1.30;99.90;;;;;;5040508;28;20238;-87
2023/01/25 02:53:53;;;;;;;8.73;4.20;;;1.20;99.90;;;;;;5057512;28;20226;-88
2023/01/25 02:56:19;;;;;;;13.50;4.90;;;1.20;99.90;;;;;;5038080;28;20218;-88
2023/01/25 02:58:45;;;;;;;3.17;2.83;;;1.30;99.90;;;;;;5037367;28;20215;-88
2023/01/25 03:01:12;;;;;;;3.43;3.03;;;1.30;99.90;;;;;;5021773;28;20232;-87
2023/01/25 03:03:38;;;;;;;8.27;6.00;;;1.30;99.90;;;;;;5042334;28;20289;-88
2023/01/25 03:06:06;;;;;;;8.20;5.80;;;1.20;99.90;;;;;;5041725;28;20218;-86
2023/01/25 03:08:32;;;;;;;3.50;2.57;;;1.20;99.90;;;;;;5042276;28;20584;-87
2023/01/25 03:11:00;;;;;;;4.57;4.10;;;1.20;99.90;;;;;;5041539;28;20685;-88
2023/01/25 03:13:26;;;;;;;5.67;5.27;;;1.20;99.90;;;;;;5061118;28;20222;-88
2023/01/25 03:15:58;;;;;;;3.87;2.67;;;1.20;99.90;;;;;;5025527;28;20201;-88
2023/01/25 03:18:24;;;;;;;4.20;3.90;;;1.20;99.90;;;;;;5043883;28;20209;-88
2023/01/25 03:20:50;;;;;;;4.87;4.37;;;1.30;99.90;;;;;;5041730;28;20686;-88
2023/01/25 03:23:16;;;;;;;12.80;4.83;;;1.30;99.90;;;;;;5043137;28;20230;-88
2023/01/25 03:25:42;;;;;;;7.43;3.80;;;1.30;99.90;;;;;;5040601;28;20214;-89
2023/01/25 03:28:07;;;;;;;3.77;3.07;;;1.30;99.90;;;;;;5041406;28;20202;-88
2023/01/25 03:30:33;;;;;;;8.40;4.60;;;1.40;99.90;;;;;;5043742;28;20222;-89
2023/01/25 03:32:59;;;;;;;5.27;3.30;;;1.30;99.90;;;;;;5059034;28;20215;-88
2023/01/25 03:35:28;;;;;;;5.27;4.77;;;1.40;99.90;;;;;;5055477;28;20217;-88
2023/01/25 03:37:54;;;;;;;5.87;5.40;;;1.40;99.90;;;;;;5043438;28;20263;-88
2023/01/25 03:40:19;;;;;;;4.87;4.03;;;1.30;99.90;;;;;;5042083;28;20213;-88
2023/01/25 03:42:45;;;;;;;7.03;6.43;;;1.30;99.90;;;;;;5044183;28;20190;-88
2023/01/25 03:45:14;;;;;;;7.30;5.57;;;1.30;99.90;;;;;;5042021;28;20214;-87
2023/01/25 03:47:41;;;;;;;4.03;3.63;;;1.20;99.90;;;;;;5040251;28;20207;-89
2023/01/25 03:50:07;;;;;;;3.10;2.97;;;1.20;99.90;;;;;;5042037;28;20227;-87
2023/01/25 03:56:09;;;;;;;4.60;4.20;;;1.20;99.90;;;;;;5039160;28;20222;-87
2023/01/25 03:58:36;;;;;;;5.07;4.33;;;1.20;99.90;;;;;;5026164;28;20222;-88
2023/01/25 04:01:04;;;;;;;7.33;6.87;;;1.20;99.90;;;;;;5058566;28;20287;-87
2023/01/25 04:03:30;;;;;;;6.30;5.07;;;1.20;99.90;;;;;;5059262;28;20190;-87
2023/01/25 04:05:57;;;;;;;6.07;5.37;;;1.20;99.90;;;;;;5025583;28;20308;-87
2023/01/25 04:08:23;;;;;;;7.30;2.80;;;1.20;99.90;;;;;;5024822;28;20218;-87
2023/01/25 04:10:54;;;;;;;4.80;4.43;;;1.30;99.90;;;;;;5042502;28;20674;-87
2023/01/25 04:13:21;;;;;;;6.03;4.97;;;1.30;99.90;;;;;;5041152;28;20214;-88
2023/01/25 04:15:47;;;;;;;5.47;5.10;;;1.30;99.90;;;;;;5041961;28;20189;-88
2023/01/25 04:18:14;;;;;;;5.13;4.77;;;1.20;99.90;;;;;;5043012;28;20229;-88
2023/01/25 04:20:40;;;;;;;5.77;5.30;;;1.20;99.90;;;;;;5024503;28;20327;-88
2023/01/25 04:23:07;;;;;;;9.27;6.47;;;1.20;99.90;;;;;;5040856;28;20694;-88
2023/01/25 04:25:33;;;;;;;6.13;5.57;;;1.20;99.90;;;;;;5056651;28;20217;-88
2023/01/25 04:27:58;;;;;;;8.77;5.87;;;1.20;99.90;;;;;;5042510;28;20186;-88
2023/01/25 04:30:25;;;;;;;7.80;5.63;;;1.10;99.90;;;;;;5042628;28;20214;-88
2023/01/25 04:32:51;;;;;;;7.77;5.60;;;1.10;99.90;;;;;;5041873;28;20221;-88
2023/01/25 04:35:19;;;;;;;6.00;3.83;;;1.10;99.90;;;;;;5057512;28;20214;-88
2023/01/25 04:37:55;;;;;;;15.70;4.80;;;1.20;99.90;;;;;;5041897;28;20280;-88
2023/01/25 04:40:21;;;;;;;2.33;2.23;;;1.20;99.90;;;;;;5043387;28;20214;-88
2023/01/25 04:42:47;;;;;;;4.57;3.47;;;1.10;99.90;;;;;;5041812;28;20198;-88
2023/01/25 04:45:13;;;;;;;3.43;3.13;;;1.10;99.90;;;;;;5040879;28;20714;-88
2023/01/25 04:47:39;;;;;;;4.27;3.87;;;1.10;99.90;;;;;;5058411;28;20218;-87
2023/01/25 04:50:05;;;;;;;5.23;4.13;;;1.10;99.90;;;;;;5039991;28;20724;-87
2023/01/25 04:52:31;;;;;;;4.23;3.30;;;1.10;99.90;;;;;;5039645;28;20226;-88
2023/01/25 04:54:57;;;;;;;3.20;2.63;;;1.10;99.90;;;;;;5041714;28;20675;-88
2023/01/25 04:57:23;;;;;;;6.03;5.10;;;1.10;99.90;;;;;;5039452;28;20213;-88
2023/01/25 04:59:48;;;;;;;4.03;3.70;;;1.10;99.90;;;;;;5055813;28;20301;-88
2023/01/25 05:02:14;;;;;;;4.67;4.23;;;1.10;99.90;;;;;;5058384;28;20249;-88
2023/01/25 05:04:40;;;;;;;5.60;5.10;;;1.10;99.90;;;;;;5059057;28;20740;-88
2023/01/25 05:07:06;;;;;;;4.33;3.47;;;1.20;99.90;;;;;;5042081;28;20522;-88
2023/01/25 05:09:31;;;;;;;9.17;5.63;;;1.10;99.90;;;;;;5041571;28;20210;-87
2023/01/25 05:11:57;;;;;;;4.27;3.80;;;1.10;99.90;;;;;;5038824;28;20304;-88
2023/01/25 05:14:23;;;;;;;5.93;4.70;;;1.10;99.90;;;;;;5039562;28;20210;-88
2023/01/25 05:16:49;;;;;;;2.73;2.33;;;1.20;99.90;;;;;;5039011;28;20213;-88
2023/01/25 05:19:15;;;;;;;7.77;4.63;;;1.10;99.90;;;;;;5042328;28;20209;-88
2023/01/25 05:21:59;;;;;;;2.90;2.70;;;1.10;99.90;;;;;;5040257;28;20609;-87
2023/01/25 05:24:26;;;;;;;4.23;3.60;;;1.20;99.90;;;;;;5023275;28;20333;-87
2023/01/25 05:27:05;;;;;;;6.50;3.80;;;1.20;99.90;;;;;;5039888;28;20245;-87
2023/01/25 05:29:38;;;;;;;5.17;3.60;;;1.10;99.90;;;;;;5055975;28;20221;-88
2023/01/25 05:32:12;;;;;;;2.50;2.30;;;1.20;99.90;;;;;;5042119;28;20210;-89
2023/01/25 05:34:39;;;;;;;3.20;3.00;;;1.20;99.90;;;;;;5056767;28;20291;-88
2023/01/25 05:37:07;;;;;;;5.53;5.10;;;1.20;99.90;;;;;;5055767;28;20550;-87
2023/01/25 05:39:32;;;;;;;7.33;5.53;;;1.30;99.90;;;;;;5058524;28;20643;-88
2023/01/25 05:41:59;;;;;;;6.60;2.57;;;1.20;99.90;;;;;;5057701;28;20229;-88
2023/01/25 05:44:25;;;;;;;3.83;2.40;;;1.20;99.90;;;;;;5052464;28;20875;-91
2023/01/25 05:46:53;;;;;;;8.07;3.03;;;1.30;99.90;;;;;;5037984;28;20256;-90
2023/01/25 05:49:19;;;;;;;2.87;2.57;;;1.30;99.90;;;;;;5035981;28;20211;-90
2023/01/25 05:51:47;;;;;;;4.77;3.73;;;1.30;99.90;;;;;;5037891;28;20230;-90
2023/01/25 05:54:18;;;;;;;5.30;4.83;;;1.40;99.90;;;;;;5056901;28;20213;-90
2023/01/25 05:56:44;;;;;;;13.67;4.00;;;1.40;99.90;;;;;;5040749;28;20297;-91
2023/01/25 05:59:11;;;;;;;4.60;4.20;;;1.40;99.90;;;;;;5040543;28;20304;-90
2023/01/25 06:01:38;;;;;;;12.07;5.03;;;1.30;99.90;;;;;;5040690;28;20226;-90
2023/01/25 06:04:04;;;;;;;4.77;4.03;;;1.30;99.90;;;;;;5040929;28;20549;-90
2023/01/25 06:06:30;;;;;;;5.97;5.43;;;1.30;99.90;;;;;;5055537;28;20186;-90
2023/01/25 06:08:56;;;;;;;8.73;5.57;;;1.30;99.90;;;;;;5054860;28;20215;-90
2023/01/25 06:11:23;;;;;;;5.03;4.77;;;1.30;99.90;;;;;;5056193;28;20211;-90
2023/01/25 06:13:50;;;;;;;4.77;3.90;;;1.30;99.90;;;;;;5056940;28;20212;-90
2023/01/25 06:16:17;;;;;;;6.20;5.00;;;1.30;99.90;;;;;;5055612;28;20213;-90
2023/01/25 06:18:46;;;;;;;10.07;6.10;;;1.40;99.90;;;;;;5023848;28;20240;-89
2023/01/25 06:21:12;;;;;;;4.50;3.17;;;1.40;99.90;;;;;;5054177;28;20214;-90
2023/01/25 06:23:38;;;;;;;5.33;5.07;;;1.40;99.90;;;;;;5038543;28;20293;-90
2023/01/25 06:26:10;;;;;;;6.50;5.03;;;1.40;99.90;;;;;;5023045;28;20213;-91
2023/01/25 06:28:36;;;;;;;4.33;4.03;;;1.30;99.90;;;;;;5056630;28;20309;-90
2023/01/25 06:31:04;;;;;;;6.20;5.70;;;1.40;99.90;;;;;;5021811;28;20186;-90
2023/01/25 06:33:29;;;;;;;6.30;5.50;;;1.50;99.90;;;;;;5056860;28;20210;-90
2023/01/25 06:36:00;;;;;;;4.57;4.17;;;1.40;99.90;;;;;;5039327;28;20244;-91
2023/01/25 06:38:26;;;;;;;9.27;4.53;;;1.50;99.90;;;;;;5026739;28;20221;-91
2023/01/25 06:40:51;;;;;;;14.10;4.73;;;1.50;99.90;;;;;;5044042;28;20217;-90
2023/01/25 06:43:19;;;;;;;4.93;4.43;;;1.60;99.90;;;;;;5044928;28;20284;-91
2023/01/25 06:45:48;;;;;;;5.63;4.13;;;1.50;99.90;;;;;;5028646;28;20280;-91
2023/01/25 06:48:14;;;;;;;4.63;4.17;;;1.50;99.90;;;;;;5061322;28;20747;-90
2023/01/25 06:50:40;;;;;;;7.47;4.50;;;1.50;99.90;;;;;;5043325;28;20237;-90
2023/01/25 06:53:05;;;;;;;5.37;4.40;;;1.40;99.90;;;;;;5040491;28;20236;-90
2023/01/25 06:55:31;;;;;;;4.33;3.97;;;1.50;99.90;;;;;;5027930;28;20221;-91
2023/01/25 06:57:59;;;;;;;5.00;4.57;;;1.50;99.90;;;;;;5041920;28;20241;-90
2023/01/25 07:00:25;;;;;;;4.23;3.27;;;1.50;99.90;;;;;;5026715;28;20218;-90
2023/01/25 07:02:51;;;;;;;7.17;4.40;;;1.40;99.90;;;;;;5043646;28;20690;-91
2023/01/25 07:05:17;;;;;;;4.77;4.27;;;1.50;99.90;;;;;;5026617;28;20312;-91
2023/01/25 07:07:46;;;;;;;13.60;8.03;;;1.40;99.90;;;;;;5025749;28;20210;-91
2023/01/25 07:10:12;;;;;;;6.87;4.43;;;1.40;99.90;;;;;;5042550;28;20561;-91
2023/01/25 07:12:37;;;;;;;4.83;4.53;;;1.50;99.90;;;;;;5023710;28;20316;-91
2023/01/25 07:15:03;;;;;;;7.27;6.63;;;1.50;99.90;;;;;;5024459;28;20213;-92
2023/01/25 07:17:29;;;;;;;4.53;4.27;;;1.40;99.90;;;;;;5039155;28;20233;-92
2023/01/25 07:19:55;;;;;;;7.07;6.37;;;1.40;99.90;;;;;;5056046;28;20214;-91
2023/01/25 07:22:21;;;;;;;8.73;8.13;;;1.40;99.90;;;;;;5040336;28;20225;-91
2023/01/25 07:24:49;;;;;;;18.70;7.93;;;1.50;99.90;;;;;;5039289;28;20204;-92
2023/01/25 07:27:16;;;;;;;5.87;5.37;;;1.40;99.90;;;;;;5042190;28;20221;-91
2023/01/25 07:29:42;;;;;;;7.63;2.73;;;1.40;99.90;;;;;;5025463;28;20222;-91
2023/01/25 07:32:10;;;;;;;16.13;12.87;;;1.40;99.90;;;;;;5025264;28;20225;-92
2023/01/25 07:34:36;;;;;;;10.87;8.40;;;1.40;99.90;;;;;;5026956;28;20758;-91
2023/01/25 07:37:02;;;;;;;4.20;3.80;;;1.40;99.90;;;;;;5043535;28;20268;-91
2023/01/25 07:39:28;;;;;;;4.37;4.00;;;1.40;99.90;;;;;;5043017;28;20663;-89
2023/01/25 07:41:53;;;;;;;8.30;7.13;;;1.50;99.90;;;;;;5043701;28;20574;-91
2023/01/25 07:44:19;;;;;;;16.43;5.17;;;1.50;99.90;;;;;;5025450;28;20225;-90
2023/01/25 07:46:45;;;;;;;6.33;5.30;;;1.50;99.90;;;;;;5041222;28;20230;-91
2023/01/25 07:49:11;;;;;;;5.93;3.93;;;1.50;99.90;;;;;;5041376;28;20221;-92
2023/01/25 07:51:36;;;;;;;5.13;4.67;;;1.50;99.90;;;;;;5044085;28;20189;-89
2023/01/25 07:54:04;;;;;;;5.33;1.93;;;1.40;99.90;;;;;;5025889;28;20218;-91
2023/01/25 07:56:32;;;;;;;4.53;4.13;;;1.40;99.90;;;;;;5041666;28;20252;-91
2023/01/25 07:59:01;;;;;;;5.30;4.80;;;1.40;99.90;;;;;;5057616;28;20241;-92
2023/01/25 08:01:28;;;;;;;3.90;2.23;;;1.30;99.90;;;;;;5025655;28;20214;-91
2023/01/25 08:03:56;;;;;;;3.97;3.77;;;1.20;99.90;;;;;;5059040;28;20190;-92
2023/01/25 08:06:26;;;;;;;4.00;3.70;;;1.20;99.90;;;;;;5040196;28;20218;-92
2023/01/25 08:08:52;;;;;;;6.90;5.03;;;1.20;99.90;;;;;;5042082;28;20225;-92
2023/01/25 08:11:24;;;;;;;6.63;6.10;;;1.30;99.90;;;;;;5040984;28;20206;-92
2023/01/25 08:13:50;;;;;;;7.83;4.80;;;1.30;99.90;;;;;;5043303;28;20290;-92
2023/01/25 08:16:18;;;;;;;4.00;3.80;;;1.30;99.90;;;;;;5026683;28;20577;-91
2023/01/25 08:18:54;;;;;;;4.53;4.20;;;1.30;99.90;;;;;;5060500;28;20185;-93
2023/01/25 08:21:24;;;;;;;5.27;4.87;;;1.30;99.90;;;;;;5042324;28;20622;-92
2023/01/25 08:23:50;;;;;;;4.20;3.87;;;1.40;99.90;;;;;;5027445;28;20279;-93
2023/01/25 08:26:17;;;;;;;9.03;8.40;;;1.40;99.90;;;;;;5058976;28;20221;-90
2023/01/25 08:28:43;;;;;;;7.10;6.33;;;1.40;99.90;;;;;;5043198;28;20655;-92
2023/01/25 08:31:14;;;;;;;7.90;7.40;;;1.40;99.90;;;;;;5040929;28;20225;-93
2023/01/25 08:33:43;;;;;;;8.73;5.17;;;1.50;99.90;;;;;;5061202;28;20183;-93
2023/01/25 08:36:14;;;;;;;5.07;4.03;;;1.50;99.90;;;;;;5042029;28;20689;-92
2023/01/25 08:38:40;;;;;;;3.03;2.83;;;1.50;99.90;;;;;;5060806;28;20222;-92
2023/01/25 08:41:12;;;;;;;4.53;4.03;;;1.40;99.90;;;;;;5041664;28;20313;-92
2023/01/25 08:43:38;;;;;;;4.63;4.23;;;1.40;99.90;;;;;;5043674;28;20209;-93
2023/01/25 08:46:05;;;;;;;14.17;6.73;;;1.40;99.90;;;;;;5059806;28;20297;-92
2023/01/25 08:48:31;;;;;;;8.20;6.77;;;1.50;99.90;;;;;;5041888;28;20217;-92
2023/01/25 08:50:57;;;;;;;9.43;5.70;;;1.40;99.90;;;;;;5058644;28;20226;-92
2023/01/25 08:53:23;;;;;;;4.50;2.90;;;1.40;99.90;;;;;;5042448;28;20257;-92
2023/01/25 08:55:49;;;;;;;7.50;6.07;;;1.40;99.90;;;;;;5042589;28;20213;-92
2023/01/25 08:58:18;;;;;;;6.67;5.30;;;1.40;99.90;;;;;;5028068;28;20214;-92
2023/01/25 09:00:44;;;;;;;5.63;5.20;;;1.40;99.90;;;;;;5027359;28;20182;-93
2023/01/25 09:03:10;;;;;;;20.47;4.83;;;1.40;99.90;;;;;;5062766;28;20218;-92
2023/01/25 09:05:40;;;;;;;6.87;5.77;;;1.40;99.90;;;;;;5042857;28;20240;-91
2023/01/25 09:08:09;;;;;;;2.93;2.37;;;1.50;99.90;;;;;;5041039;28;20314;-92
2023/01/25 09:10:35;;;;;;;7.90;4.90;;;1.50;99.90;;;;;;5058151;28;20423;-90
2023/01/25 09:13:01;;;;;;;4.93;4.03;;;1.50;99.90;;;;;;5042724;28;20211;-91
2023/01/25 09:15:27;;;;;;;5.97;4.40;;;1.50;99.90;;;;;;5041654;28;20210;-90
2023/01/25 09:17:55;;;;;;;6.87;3.80;;;1.50;99.90;;;;;;5032572;28;20222;-92
2023/01/25 09:20:22;;;;;;;7.33;2.77;;;1.50;99.90;;;;;;5041840;28;20221;-91
2023/01/25 09:22:48;;;;;;;4.97;4.07;;;1.50;99.90;;;;;;5025567;28;20558;-91
2023/01/25 09:25:14;;;;;;;4.93;4.47;;;1.60;99.90;;;;;;5042170;28;20209;-91
2023/01/25 09:27:40;;;;;;;3.70;3.43;;;1.50;99.90;;;;;;5043703;28;20194;-91
2023/01/25 09:30:09;;;;;;;5.80;5.00;;;1.60;99.90;;;;;;5057768;28;20283;-91
2023/01/25 09:32:35;;;;;;;5.17;3.63;;;1.60;99.90;;;;;;5042581;28;20850;-91
2023/01/25 09:35:03;;;;;;;4.27;2.20;;;1.60;99.90;;;;;;5022476;28;20204;-90
2023/01/25 09:37:31;;;;;;;17.23;5.73;;;1.60;99.90;;;;;;5045238;28;20206;-92
2023/01/25 09:39:57;;;;;;;7.33;5.53;;;1.70;99.90;;;;;;5061855;28;20570;-91
2023/01/25 09:43:11;;;;;;;3.97;3.67;;;1.70;99.90;;;;;;5049605;28;20222;-91
2023/01/25 09:45:37;;;;;;;6.93;6.23;;;1.80;99.90;;;;;;5042455;28;20715;-92
2023/01/25 09:48:30;;;;;;;1.43;1.43;;;1.80;99.90;;;;;;5040542;28;20298;-92
2023/01/25 09:51:14;;;;;;;6.93;5.40;;;1.80;99.90;;;;;;5041619;28;20221;-92
2023/01/25 09:53:48;;;;;;;20.87;7.60;;;1.90;99.90;;;;;;5057152;28;20226;-91
2023/01/25 09:56:34;;;;;;;13.43;6.47;;;1.80;99.90;;;;;;5056143;28;20269;-91
2023/01/25 09:59:10;;;;;;;11.30;8.00;;;1.80;99.90;;;;;;5041911;28;20272;-90
2023/01/25 10:01:57;;;;;;;7.80;7.03;;;1.80;99.90;;;;;;5041381;28;20248;-91
2023/01/25 10:04:44;;;;;;;10.40;5.73;;;1.90;99.90;;;;;;5057926;28;20722;-89
2023/01/25 10:07:19;;;;;;;14.27;5.97;;;1.90;99.90;;;;;;5044558;28;20227;-92
2023/01/25 10:10:15;;;;;;;5.03;4.63;;;1.90;99.90;;;;;;5053664;28;20213;-91
2023/01/25 10:12:41;;;;;;;7.83;7.33;;;1.90;99.90;;;;;;5036543;28;20565;-92
2023/01/25 10:15:28;;;;;;;16.10;7.73;;;1.90;99.90;;;;;;5036554;28;20217;-90
2023/01/25 10:18:02;;;;;;;38.10;6.10;;;1.90;99.90;;;;;;5034863;28;20248;-91
2023/01/25 10:20:54;;;;;;;4.20;3.90;;;1.90;99.90;;;;;;5035008;28;20292;-91
2023/01/25 10:23:27;;;;;;;6.73;5.97;;;1.90;99.90;;;;;;5053291;28;20222;-91
2023/01/25 10:26:31;;;;;;;11.13;4.60;;;1.90;99.90;;;;;;5053796;28;20781;-92
2023/01/25 10:29:20;;;;;;;6.00;5.50;;;2.00;99.90;;;;;;5007936;28;20705;-91
2023/01/25 10:31:52;;;;;;;8.47;7.90;;;2.00;99.90;;;;;;5034761;28;20231;-92
2023/01/25 10:34:19;;;;;;;8.00;7.30;;;2.00;99.90;;;;;;5038465;28;20281;-92
2023/01/25 10:36:54;;;;;;;10.37;8.90;;;2.10;99.90;;;;;;5054989;28;20612;-93
2023/01/25 10:39:20;;;;;;;13.77;7.63;;;2.10;99.90;;;;;;5053760;28;20217;-92
2023/01/25 10:41:52;;;;;;;23.47;4.17;;;2.10;99.90;;;;;;5038287;28;20210;-92
2023/01/25 10:44:20;;;;;;;12.77;5.17;;;2.00;99.90;;;;;;5051507;28;20737;-93
2023/01/25 10:46:55;;;;;;;5.20;4.80;;;2.10;99.90;;;;;;5037384;28;20224;-91
2023/01/25 10:49:46;;;;;;;9.67;5.93;;;2.10;99.90;;;;;;5036558;28;20724;-91
2023/01/25 10:52:18;;;;;;;8.03;6.97;;;2.20;99.90;;;;;;5037631;28;20226;-91
2023/01/25 10:54:45;;;;;;;6.13;5.67;;;2.10;99.90;;;;;;5053738;28;20198;-91
2023/01/25 10:57:17;;;;;;;5.37;4.43;;;2.10;99.90;;;;;;5052204;28;20226;-91
2023/01/25 10:59:46;;;;;;;6.60;6.03;;;2.20;99.90;;;;;;5035782;28;20218;-91
2023/01/25 11:02:34;;;;;;;5.93;5.13;;;2.20;99.90;;;;;;5052429;28;20221;-90
2023/01/25 11:05:17;;;;;;;15.63;8.53;;;2.10;99.90;;;;;;5052599;28;20271;-91
2023/01/25 11:07:47;;;;;;;5.57;5.27;;;2.10;99.90;;;;;;5052061;28;20235;-91
2023/01/25 11:10:34;;;;;;;6.50;5.50;;;2.20;99.90;;;;;;5052583;28;20737;-92
2023/01/25 11:13:15;;;;;;;13.97;9.60;;;2.20;99.90;;;;;;5036330;28;20201;-91
2023/01/25 11:15:45;;;;;;;6.13;4.43;;;2.20;99.90;;;;;;5038043;28;20548;-92
2023/01/25 11:18:34;;;;;;;9.43;8.67;;;2.20;99.90;;;;;;5035564;28;20705;-92
2023/01/25 11:21:24;;;;;;;7.60;6.80;;;2.30;99.90;;;;;;5037447;28;20224;-91
2023/01/25 11:24:04;;;;;;;6.90;5.97;;;2.30;99.90;;;;;;5019454;28;20211;-92
2023/01/25 11:26:31;;;;;;;15.77;8.03;;;2.30;99.90;;;;;;5053905;28;20217;-91
2023/01/25 11:29:15;;;;;;;24.83;6.57;;;2.30;99.90;;;;;;5040222;28;20226;-91
2023/01/25 11:31:46;;;;;;;13.57;5.83;;;2.30;99.90;;;;;;5056879;28;20240;-93
2023/01/25 11:34:15;;;;;;;11.37;6.90;;;2.30;99.90;;;;;;5054055;28;20215;-91
2023/01/25 11:37:05;;;;;;;8.93;6.70;;;2.40;99.90;;;;;;5058539;28;20647;-91
2023/01/25 11:40:01;;;;;;;4.83;4.30;;;2.40;99.90;;;;;;5037231;28;20203;-91
2023/01/25 11:43:00;;;;;;;6.03;5.63;;;2.50;99.90;;;;;;5040688;28;20801;-91
2023/01/25 11:45:49;;;;;;;9.60;4.83;;;2.50;99.90;;;;;;5035652;28;20585;-91
2023/01/25 11:48:38;;;;;;;10.67;9.40;;;2.60;99.90;;;;;;5030085;28;20231;-91
2023/01/25 11:51:04;;;;;;;8.63;7.57;;;2.70;99.90;;;;;;5054478;28;20401;-91
2023/01/25 11:53:53;;;;;;;11.20;7.80;;;2.70;99.90;;;;;;5057039;28;20409;-90
2023/01/25 11:56:52;;;;;;;5.63;5.20;;;2.80;99.90;;;;;;5056676;28;20222;-91
2023/01/25 11:59:40;;;;;;;11.83;4.83;;;2.80;99.90;;;;;;5038838;28;20222;-90
2023/01/25 12:02:45;;;;;;;6.67;6.13;;;2.90;99.90;;;;;;5054821;28;20702;-90
2023/01/25 12:05:27;;;;;;;6.27;5.70;;;3.00;99.90;;;;;;5058829;28;20309;-90
2023/01/25 12:08:08;;;;;;;12.00;6.80;;;3.00;99.90;;;;;;5055958;28;20241;-90
2023/01/25 12:11:06;;;;;;;26.37;6.47;;;3.10;99.90;;;;;;5056423;28;20664;-91
2023/01/25 12:14:13;;;;;;;8.10;5.17;;;3.10;99.90;;;;;;5039504;28;20233;-90
2023/01/25 12:17:03;;;;;;;11.13;6.30;;;3.20;99.90;;;;;;5056663;28;20249;-91
2023/01/25 12:19:45;;;;;;;13.40;6.03;;;3.20;99.90;;;;;;5054131;28;20708;-90
2023/01/25 12:22:30;;;;;;;9.60;5.90;;;3.20;99.90;;;;;;5057778;28;20230;-91
2023/01/25 12:25:25;;;;;;;7.60;6.33;;;3.30;99.90;;;;;;5054824;28;20191;-91
2023/01/25 12:28:05;;;;;;;7.13;4.53;;;3.30;99.90;;;;;;5041683;28;20313;-91
2023/01/25 12:30:48;;;;;;;8.30;7.10;;;3.30;99.90;;;;;;5038374;28;20702;-92
2023/01/25 12:33:35;;;;;;;12.70;5.53;;;3.40;99.90;;;;;;5052392;28;20217;-91
2023/01/25 12:36:27;;;;;;;14.07;7.20;;;3.40;99.90;;;;;;5038497;28;20570;-90
2023/01/25 12:39:05;;;;;;;13.07;7.40;;;3.50;99.90;;;;;;5055711;28;20601;-92
2023/01/25 12:41:53;;;;;;;9.90;6.33;;;3.50;99.90;;;;;;5055743;28;20217;-91
2023/01/25 12:44:35;;;;;;;8.40;6.53;;;3.50;99.90;;;;;;5056633;28;20225;-91
2023/01/25 12:47:13;;;;;;;16.70;8.03;;;3.50;99.90;;;;;;5040059;28;20221;-93
2023/01/25 12:49:45;;;;;;;8.53;7.93;;;3.50;99.90;;;;;;5052177;28;20222;-90
2023/01/25 12:52:26;;;;;;;6.17;5.67;;;3.60;99.90;;;;;;5054985;28;20275;-91
2023/01/25 12:54:55;;;;;;;16.40;6.03;;;3.70;99.90;;;;;;5039657;28;20190;-92
2023/01/25 12:57:42;;;;;;;3.73;3.50;;;3.80;99.90;;;;;;5053805;28;20210;-91
2023/01/25 13:00:18;;;;;;;6.00;5.50;;;3.80;99.90;;;;;;5054367;28;20210;-90
2023/01/25 13:03:20;;;;;;;6.07;4.70;;;3.70;99.90;;;;;;5053777;28;20218;-90
2023/01/25 13:05:56;;;;;;;6.57;5.80;;;3.60;99.90;;;;;;5054535;28;20618;-90
2023/01/25 13:09:05;;;;;;;11.40;6.00;;;3.60;99.90;;;;;;5054977;28;20293;-91
2023/01/25 13:11:35;;;;;;;12.37;7.53;;;3.70;99.90;;;;;;5054924;28;20221;-91
2023/01/25 13:14:17;;;;;;;6.97;5.73;;;3.60;99.90;;;;;;5039707;28;20292;-91
2023/01/25 13:16:48;;;;;;;5.63;5.33;;;3.70;99.90;;;;;;5054115;28;20221;-91
2023/01/25 13:19:28;;;;;;;8.60;4.30;;;3.70;99.90;;;;;;5035971;28;20187;-92
2023/01/25 13:21:58;;;;;;;9.97;6.97;;;3.70;99.90;;;;;;5055115;28;20282;-92